sensor_id;sensor_type;location;lat;lon;timestamp;pressure;altitude;pressure_sealevel;temperature;humidity
28630;BME280;15817;42.130;24.762;2023-04-02T00:08:55;98946.56;;;11.16;77.99
28630;BME280;15817;42.130;24.762;2023-04-02T00:11:31;98936.94;;;11.09;78.38
28630;BME280;15817;42.130;24.762;2023-04-02T00:14:00;98936.94;;;11.09;78.42
28630;BME280;15817;42.130;24.762;2023-04-02T00:16:27;98936.97;;;11.08;78.57
28630;BME280;15817;42.130;24.762;2023-04-02T00:18:56;98937.91;;;11.07;78.62
28630;BME280;15817;42.130;24.762;2023-04-02T00:21:36;98928.22;;;11.03;78.42
28630;BME280;15817;42.130;24.762;2023-04-02T00:24:12;98928.34;;;10.97;78.55
28630;BME280;15817;42.130;24.762;2023-04-02T00:26:42;98928.34;;;10.97;78.30
28630;BME280;15817;42.130;24.762;2023-04-02T00:29:11;98941.66;;;10.97;78.11
28630;BME280;15817;42.130;24.762;2023-04-02T00:31:40;98939.88;;;10.97;77.93
28630;BME280;15817;42.130;24.762;2023-04-02T00:34:11;98946.06;;;10.98;77.80
28630;BME280;15817;42.130;24.762;2023-04-02T00:36:39;98939.94;;;10.96;78.31
28630;BME280;15817;42.130;24.762;2023-04-02T00:39:14;98939.84;;;10.99;78.23
28630;BME280;15817;42.130;24.762;2023-04-02T00:41:41;98952.19;;;11.03;78.25
28630;BME280;15817;42.130;24.762;2023-04-02T00:44:13;98936.50;;;10.91;78.19
28630;BME280;15817;42.130;24.762;2023-04-02T00:46:42;98955.06;;;10.94;78.37
28630;BME280;15817;42.130;24.762;2023-04-02T00:49:37;98954.38;;;10.84;79.01
28630;BME280;15817;42.130;24.762;2023-04-02T00:52:06;98968.69;;;10.77;79.96
28630;BME280;15817;42.130;24.762;2023-04-02T00:54:49;98954.66;;;10.72;80.52
28630;BME280;15817;42.130;24.762;2023-04-02T00:57:20;98955.47;;;10.74;80.40
28630;BME280;15817;42.130;24.762;2023-04-02T01:02:40;98940.22;;;10.83;79.73
28630;BME280;15817;42.130;24.762;2023-04-02T01:15:24;98950.06;;;10.78;79.04
28630;BME280;15817;42.130;24.762;2023-04-02T01:20:27;98963.28;;;10.83;78.89
28630;BME280;15817;42.130;24.762;2023-04-02T01:28:31;98966.91;;;10.77;78.51
28630;BME280;15817;42.130;24.762;2023-04-02T01:31:03;98951.09;;;10.71;78.50
28630;BME280;15817;42.130;24.762;2023-04-02T01:33:34;98954.69;;;10.69;78.31
28630;BME280;15817;42.130;24.762;2023-04-02T01:36:26;98953.81;;;10.68;78.49
28630;BME280;15817;42.130;24.762;2023-04-02T01:39:05;98958.22;;;10.71;78.39
28630;BME280;15817;42.130;24.762;2023-04-02T01:42:00;98956.50;;;10.67;78.00
28630;BME280;15817;42.130;24.762;2023-04-02T01:44:36;98960.03;;;10.69;78.12
28630;BME280;15817;42.130;24.762;2023-04-02T01:47:14;98962.72;;;10.66;77.87
28630;BME280;15817;42.130;24.762;2023-04-02T01:49:44;98953.78;;;10.70;77.96
28630;BME280;15817;42.130;24.762;2023-04-02T01:52:31;98969.69;;;10.73;78.06
28630;BME280;15817;42.130;24.762;2023-04-02T01:55:13;98966.22;;;10.69;77.91
28630;BME280;15817;42.130;24.762;2023-04-02T01:57:42;98958.25;;;10.69;77.69
28630;BME280;15817;42.130;24.762;2023-04-02T02:00:17;98967.97;;;10.70;77.56
28630;BME280;15817;42.130;24.762;2023-04-02T02:02:50;98957.38;;;10.67;77.21
28630;BME280;15817;42.130;24.762;2023-04-02T02:05:29;98959.19;;;10.65;77.16
28630;BME280;15817;42.130;24.762;2023-04-02T02:07:56;98950.31;;;10.66;77.63
28630;BME280;15817;42.130;24.762;2023-04-02T02:10:33;98952.16;;;10.63;77.85
28630;BME280;15817;42.130;24.762;2023-04-02T02:13:22;98946.97;;;10.57;78.26
28630;BME280;15817;42.130;24.762;2023-04-02T02:15:56;98951.38;;;10.59;78.25
28630;BME280;15817;42.130;24.762;2023-04-02T02:18:22;98942.59;;;10.54;78.70
28630;BME280;15817;42.130;24.762;2023-04-02T02:20:50;98940.84;;;10.53;78.83
28630;BME280;15817;42.130;24.762;2023-04-02T02:23:19;98940.00;;;10.51;78.58
28630;BME280;15817;42.130;24.762;2023-04-02T02:25:46;98930.19;;;10.53;78.74
28630;BME280;15817;42.130;24.762;2023-04-02T02:28:26;98920.47;;;10.52;78.64
28630;BME280;15817;42.130;24.762;2023-04-02T02:31:26;98931.94;;;10.56;78.15
28630;BME280;15817;42.130;24.762;2023-04-02T02:34:11;98939.75;;;10.62;78.01
28630;BME280;15817;42.130;24.762;2023-04-02T02:36:53;98931.88;;;10.59;77.70
28630;BME280;15817;42.130;24.762;2023-04-02T02:40:06;98938.06;;;10.59;77.54
28630;BME280;15817;42.130;24.762;2023-04-02T02:42:57;98936.16;;;10.64;77.53
28630;BME280;15817;42.130;24.762;2023-04-02T02:48:55;98944.13;;;10.66;77.16
28630;BME280;15817;42.130;24.762;2023-04-02T02:52:26;98934.34;;;10.68;76.87
28630;BME280;15817;42.130;24.762;2023-04-02T02:55:18;98943.00;;;10.76;77.17
28630;BME280;15817;42.130;24.762;2023-04-02T02:58:36;98939.63;;;10.69;77.35
28630;BME280;15817;42.130;24.762;2023-04-02T03:01:49;98944.94;;;10.69;77.26
28630;BME280;15817;42.130;24.762;2023-04-02T03:04:48;98943.28;;;10.62;77.71
28630;BME280;15817;42.130;24.762;2023-04-02T03:07:58;98941.50;;;10.63;78.46
28630;BME280;15817;42.130;24.762;2023-04-02T03:10:50;98954.66;;;10.70;79.09
28630;BME280;15817;42.130;24.762;2023-04-02T03:13:29;98952.88;;;10.71;78.98
28630;BME280;15817;42.130;24.762;2023-04-02T03:22:03;98945.06;;;10.63;80.32
28630;BME280;15817;42.130;24.762;2023-04-02T03:31:17;98963.69;;;10.62;81.21
28630;BME280;15817;42.130;24.762;2023-04-02T03:34:24;98972.53;;;10.62;81.24
28630;BME280;15817;42.130;24.762;2023-04-02T03:37:23;98969.97;;;10.59;81.41
28630;BME280;15817;42.130;24.762;2023-04-02T03:40:20;98970.03;;;10.56;81.65
28630;BME280;15817;42.130;24.762;2023-04-02T03:43:34;98971.84;;;10.54;81.74
28630;BME280;15817;42.130;24.762;2023-04-02T03:46:43;98979.75;;;10.57;82.41
28630;BME280;15817;42.130;24.762;2023-04-02T03:49:37;98971.88;;;10.52;83.00
28630;BME280;15817;42.130;24.762;2023-04-02T03:52:13;98985.97;;;10.56;82.95
28630;BME280;15817;42.130;24.762;2023-04-02T03:54:42;98980.81;;;10.48;83.28
28630;BME280;15817;42.130;24.762;2023-04-02T03:57:21;98965.84;;;10.44;83.03
28630;BME280;15817;42.130;24.762;2023-04-02T03:59:57;98971.16;;;10.44;82.90
28630;BME280;15817;42.130;24.762;2023-04-02T04:04:53;98963.22;;;10.41;82.96
28630;BME280;15817;42.130;24.762;2023-04-02T04:07:29;98966.03;;;10.34;82.59
28630;BME280;15817;42.130;24.762;2023-04-02T04:09:56;98973.97;;;10.37;83.16
28630;BME280;15817;42.130;24.762;2023-04-02T04:12:42;98968.66;;;10.37;82.85
28630;BME280;15817;42.130;24.762;2023-04-02T04:15:34;98969.53;;;10.37;83.39
28630;BME280;15817;42.130;24.762;2023-04-02T04:24:47;98979.28;;;10.37;83.18
28630;BME280;15817;42.130;24.762;2023-04-02T04:31:38;98994.22;;;10.42;82.62
28630;BME280;15817;42.130;24.762;2023-04-02T04:34:33;98989.88;;;10.38;82.59
28630;BME280;15817;42.130;24.762;2023-04-02T04:37:13;98981.03;;;10.38;82.19
28630;BME280;15817;42.130;24.762;2023-04-02T04:40:08;98990.59;;;10.46;81.93
28630;BME280;15817;42.130;24.762;2023-04-02T04:43:19;98975.63;;;10.42;81.76
28630;BME280;15817;42.130;24.762;2023-04-02T04:53:11;98973.84;;;10.43;81.32
28630;BME280;15817;42.130;24.762;2023-04-02T04:56:31;98981.69;;;10.49;80.95
28630;BME280;15817;42.130;24.762;2023-04-02T05:51:06;99038.38;;;10.96;77.32
28630;BME280;15817;42.130;24.762;2023-04-02T06:12:42;99047.31;;;11.32;73.83
28630;BME280;15817;42.130;24.762;2023-04-02T06:31:35;99060.72;;;11.67;70.86
28630;BME280;15817;42.130;24.762;2023-04-02T06:35:32;99059.84;;;11.67;71.39
28630;BME280;15817;42.130;24.762;2023-04-02T06:38:59;99069.47;;;11.75;71.65
28630;BME280;15817;42.130;24.762;2023-04-02T06:54:07;99077.66;;;12.03;68.46
28630;BME280;15817;42.130;24.762;2023-04-02T06:56:47;99076.59;;;12.10;68.35
28630;BME280;15817;42.130;24.762;2023-04-02T06:59:54;99073.09;;;12.08;66.82
28630;BME280;15817;42.130;24.762;2023-04-02T07:02:46;99083.53;;;12.17;66.95
28630;BME280;15817;42.130;24.762;2023-04-02T07:05:23;99092.31;;;12.21;66.90
28630;BME280;15817;42.130;24.762;2023-04-02T07:08:37;99077.22;;;12.21;66.47
28630;BME280;15817;42.130;24.762;2023-04-02T07:10:43;99080.63;;;12.26;66.57
28630;BME280;15817;42.130;24.762;2023-04-02T07:13:32;99075.25;;;12.28;66.60
28630;BME280;15817;42.130;24.762;2023-04-02T07:20:08;99091.84;;;12.39;66.45
28630;BME280;15817;42.130;24.762;2023-04-02T07:23:07;99104.09;;;12.46;65.41
28630;BME280;15817;42.130;24.762;2023-04-02T07:25:56;99101.41;;;12.48;64.27
28630;BME280;15817;42.130;24.762;2023-04-02T07:28:55;99099.56;;;12.50;62.92
28630;BME280;15817;42.130;24.762;2023-04-02T07:31:37;99098.66;;;12.51;63.80
28630;BME280;15817;42.130;24.762;2023-04-02T07:45:57;99113.84;;;13.15;60.77
28630;BME280;15817;42.130;24.762;2023-04-02T07:57:56;99101.00;;;13.85;58.36
28630;BME280;15817;42.130;24.762;2023-04-02T08:00:59;99102.25;;;14.03;57.13
28630;BME280;15817;42.130;24.762;2023-04-02T08:04:08;99086.00;;;14.09;56.19
28630;BME280;15817;42.130;24.762;2023-04-02T08:09:43;99090.97;;;14.20;55.50
28630;BME280;15817;42.130;24.762;2023-04-02T08:16:53;99087.28;;;14.24;54.48
28630;BME280;15817;42.130;24.762;2023-04-02T08:19:27;99083.44;;;14.32;53.83
28630;BME280;15817;42.130;24.762;2023-04-02T08:21:53;99094.25;;;14.29;54.06
28630;BME280;15817;42.130;24.762;2023-04-02T08:24:20;99098.47;;;14.36;53.82
28630;BME280;15817;42.130;24.762;2023-04-02T08:26:49;99098.47;;;14.36;53.48
28630;BME280;15817;42.130;24.762;2023-04-02T08:29:19;99083.72;;;15.01;51.87
28630;BME280;15817;42.130;24.762;2023-04-02T08:35:02;99080.84;;;15.30;49.94
28630;BME280;15817;42.130;24.762;2023-04-02T08:37:30;99081.06;;;15.47;49.18
28630;BME280;15817;42.130;24.762;2023-04-02T08:39:56;99083.03;;;15.67;48.38
28630;BME280;15817;42.130;24.762;2023-04-02T08:42:39;99090.19;;;15.67;47.97
28630;BME280;15817;42.130;24.762;2023-04-02T08:47:39;99075.59;;;16.39;46.38
28630;BME280;15817;42.130;24.762;2023-04-02T08:53:12;99078.34;;;17.00;45.04
28630;BME280;15817;42.130;24.762;2023-04-02T08:59:27;99078.38;;;16.58;44.33
28630;BME280;15817;42.130;24.762;2023-04-02T09:05:36;99063.47;;;17.12;45.09
28630;BME280;15817;42.130;24.762;2023-04-02T09:08:24;99065.81;;;17.19;44.48
28630;BME280;15817;42.130;24.762;2023-04-02T09:11:09;99061.25;;;17.21;43.06
28630;BME280;15817;42.130;24.762;2023-04-02T09:14:07;99057.34;;;17.28;42.09
28630;BME280;15817;42.130;24.762;2023-04-02T09:17:04;99063.38;;;17.33;41.82
28630;BME280;15817;42.130;24.762;2023-04-02T09:22:36;99050.47;;;17.79;41.12
28630;BME280;15817;42.130;24.762;2023-04-02T09:25:05;99056.47;;;18.03;41.11
28630;BME280;15817;42.130;24.762;2023-04-02T09:27:36;99043.00;;;18.22;40.79
28630;BME280;15817;42.130;24.762;2023-04-02T09:32:59;99043.75;;;18.60;40.67
28630;BME280;15817;42.130;24.762;2023-04-02T09:35:33;99042.00;;;18.76;40.73
28630;BME280;15817;42.130;24.762;2023-04-02T09:41:04;99050.28;;;19.06;40.64
28630;BME280;15817;42.130;24.762;2023-04-02T09:43:35;99037.94;;;19.02;39.20
28630;BME280;15817;42.130;24.762;2023-04-02T09:48:43;99026.19;;;19.36;39.29
28630;BME280;15817;42.130;24.762;2023-04-02T09:53:54;99031.38;;;19.56;38.74
28630;BME280;15817;42.130;24.762;2023-04-02T09:56:32;99018.31;;;19.64;38.23
28630;BME280;15817;42.130;24.762;2023-04-02T09:59:04;99026.53;;;19.78;37.38
28630;BME280;15817;42.130;24.762;2023-04-02T10:01:43;99022.06;;;19.77;37.04
28630;BME280;15817;42.130;24.762;2023-04-02T10:04:36;99019.19;;;19.65;36.68
28630;BME280;15817;42.130;24.762;2023-04-02T10:12:47;99006.50;;;19.82;34.96
28630;BME280;15817;42.130;24.762;2023-04-02T10:15:46;98997.72;;;19.95;34.28
28630;BME280;15817;42.130;24.762;2023-04-02T10:21:23;98993.25;;;19.94;33.60
28630;BME280;15817;42.130;24.762;2023-04-02T10:23:56;98991.69;;;20.05;33.61
28630;BME280;15817;42.130;24.762;2023-04-02T10:32:58;98989.72;;;20.23;32.96
28630;BME280;15817;42.130;24.762;2023-04-02T10:41:33;98985.31;;;20.66;32.45
28630;BME280;15817;42.130;24.762;2023-04-02T10:55:48;98972.22;;;20.74;32.85
28630;BME280;15817;42.130;24.762;2023-04-02T10:58:25;98968.06;;;20.69;33.25
28630;BME280;15817;42.130;24.762;2023-04-02T11:00:59;98965.44;;;20.67;33.35
28630;BME280;15817;42.130;24.762;2023-04-02T11:03:38;98966.31;;;20.68;33.23
28630;BME280;15817;42.130;24.762;2023-04-02T11:06:29;98959.16;;;20.67;30.33
28630;BME280;15817;42.130;24.762;2023-04-02T11:11:37;98956.41;;;20.96;30.60
28630;BME280;15817;42.130;24.762;2023-04-02T11:16:48;98949.44;;;20.92;30.76
28630;BME280;15817;42.130;24.762;2023-04-02T11:19:31;98951.47;;;21.03;31.08
28630;BME280;15817;42.130;24.762;2023-04-02T11:24:46;98938.13;;;21.00;31.23
28630;BME280;15817;42.130;24.762;2023-04-02T11:32:46;98924.53;;;21.16;31.65
28630;BME280;15817;42.130;24.762;2023-04-02T11:38:53;98916.91;;;21.08;31.71
28630;BME280;15817;42.130;24.762;2023-04-02T11:49:57;98911.47;;;21.37;31.86
28630;BME280;15817;42.130;24.762;2023-04-02T11:52:48;98908.56;;;21.40;32.19
28630;BME280;15817;42.130;24.762;2023-04-02T11:55:25;98915.72;;;21.41;31.57
28630;BME280;15817;42.130;24.762;2023-04-02T12:23:02;98895.34;;;21.35;32.21
28630;BME280;15817;42.130;24.762;2023-04-02T12:26:02;98881.88;;;21.21;31.90
28630;BME280;15817;42.130;24.762;2023-04-02T12:28:37;98885.69;;;21.17;32.13
28630;BME280;15817;42.130;24.762;2023-04-02T12:33:41;98885.63;;;21.18;32.03
28630;BME280;15817;42.130;24.762;2023-04-02T12:38:45;98877.44;;;21.20;32.28
28630;BME280;15817;42.130;24.762;2023-04-02T12:41:32;98878.19;;;21.22;31.84
28630;BME280;15817;42.130;24.762;2023-04-02T12:44:10;98882.03;;;21.32;31.48
28630;BME280;15817;42.130;24.762;2023-04-02T12:46:43;98868.34;;;21.21;31.76
28630;BME280;15817;42.130;24.762;2023-04-02T12:49:35;98888.22;;;21.34;32.03
28630;BME280;15817;42.130;24.762;2023-04-02T12:52:08;98868.41;;;21.34;32.18
28630;BME280;15817;42.130;24.762;2023-04-02T12:55:00;98877.69;;;21.29;31.92
28630;BME280;15817;42.130;24.762;2023-04-02T12:57:33;98870.34;;;21.17;32.11
28630;BME280;15817;42.130;24.762;2023-04-02T13:00:38;98866.88;;;21.15;32.13
28630;BME280;15817;42.130;24.762;2023-04-02T13:03:16;98870.75;;;21.11;32.15
28630;BME280;15817;42.130;24.762;2023-04-02T13:08:22;98860.31;;;21.05;32.43
28630;BME280;15817;42.130;24.762;2023-04-02T13:11:03;98871.22;;;21.04;32.67
28630;BME280;15817;42.130;24.762;2023-04-02T13:13:39;98867.56;;;21.05;32.58
28630;BME280;15817;42.130;24.762;2023-04-02T13:16:25;98871.41;;;21.01;32.29
28630;BME280;15817;42.130;24.762;2023-04-02T13:19:23;98863.91;;;20.91;32.54
28630;BME280;15817;42.130;24.762;2023-04-02T13:21:50;98867.56;;;20.90;32.58
28630;BME280;15817;42.130;24.762;2023-04-02T13:24:24;98871.53;;;20.99;33.36
28630;BME280;15817;42.130;24.762;2023-04-02T13:26:56;98869.41;;;20.90;33.21
28630;BME280;15817;42.130;24.762;2023-04-02T13:29:25;98861.03;;;20.80;33.75
28630;BME280;15817;42.130;24.762;2023-04-02T13:32:09;98857.16;;;20.70;33.63
28630;BME280;15817;42.130;24.762;2023-04-02T13:35:00;98852.44;;;20.59;33.18
28630;BME280;15817;42.130;24.762;2023-04-02T13:37:36;98849.06;;;20.56;33.51
28630;BME280;15817;42.130;24.762;2023-04-02T13:40:11;98846.56;;;20.53;33.52
28630;BME280;15817;42.130;24.762;2023-04-02T13:42:44;98844.84;;;20.52;34.06
28630;BME280;15817;42.130;24.762;2023-04-02T13:45:25;98842.22;;;20.50;34.84
28630;BME280;15817;42.130;24.762;2023-04-02T13:47:54;98843.97;;;20.51;33.81
28630;BME280;15817;42.130;24.762;2023-04-02T13:50:36;98845.81;;;20.65;33.97
28630;BME280;15817;42.130;24.762;2023-04-02T13:53:06;98836.81;;;20.65;34.08
28630;BME280;15817;42.130;24.762;2023-04-02T13:55:45;98838.44;;;20.67;33.99
28630;BME280;15817;42.130;24.762;2023-04-02T13:58:32;98851.00;;;20.68;34.44
28630;BME280;15817;42.130;24.762;2023-04-02T14:01:05;98828.22;;;20.58;34.43
28630;BME280;15817;42.130;24.762;2023-04-02T14:03:36;98848.50;;;20.51;34.84
28630;BME280;15817;42.130;24.762;2023-04-02T14:06:33;98842.59;;;20.44;34.67
28630;BME280;15817;42.130;24.762;2023-04-02T14:09:26;98847.91;;;20.46;34.48
28630;BME280;15817;42.130;24.762;2023-04-02T14:12:19;98846.06;;;20.46;34.51
28630;BME280;15817;42.130;24.762;2023-04-02T14:49:47;98846.56;;;19.95;35.88
28630;BME280;15817;42.130;24.762;2023-04-02T14:52:38;98844.03;;;19.92;35.48
28630;BME280;15817;42.130;24.762;2023-04-02T14:55:50;98846.03;;;19.88;35.12
28630;BME280;15817;42.130;24.762;2023-04-02T14:59:22;98844.59;;;19.82;35.19
28630;BME280;15817;42.130;24.762;2023-04-02T15:02:44;98843.13;;;19.77;35.65
28630;BME280;15817;42.130;24.762;2023-04-02T15:08:31;98848.88;;;19.71;36.79
28630;BME280;15817;42.130;24.762;2023-04-02T15:17:23;98852.31;;;19.59;35.78
28630;BME280;15817;42.130;24.762;2023-04-02T15:20:07;98855.09;;;19.57;36.71
28630;BME280;15817;42.130;24.762;2023-04-02T15:23:04;98860.66;;;19.54;36.99
28630;BME280;15817;42.130;24.762;2023-04-02T15:25:49;98862.41;;;19.55;35.81
28630;BME280;15817;42.130;24.762;2023-04-02T15:28:29;98865.00;;;19.57;35.44
28630;BME280;15817;42.130;24.762;2023-04-02T15:31:16;98865.88;;;19.57;35.96
28630;BME280;15817;42.130;24.762;2023-04-02T15:42:23;98864.91;;;19.42;34.91
28630;BME280;15817;42.130;24.762;2023-04-02T15:45:17;98876.66;;;19.41;34.90
28630;BME280;15817;42.130;24.762;2023-04-02T15:51:06;98879.88;;;19.32;34.17
28630;BME280;15817;42.130;24.762;2023-04-02T15:53:48;98878.69;;;19.38;34.22
28630;BME280;15817;42.130;24.762;2023-04-02T15:59:40;98888.13;;;19.29;34.02
28630;BME280;15817;42.130;24.762;2023-04-02T16:11:25;98896.25;;;19.13;33.33
28630;BME280;15817;42.130;24.762;2023-04-02T16:16:53;98897.53;;;19.06;35.02
28630;BME280;15817;42.130;24.762;2023-04-02T16:22:48;98889.34;;;18.92;35.70
28630;BME280;15817;42.130;24.762;2023-04-02T16:26:02;98899.44;;;18.89;36.02
28630;BME280;15817;42.130;24.762;2023-04-02T16:28:43;98902.22;;;18.87;36.29
28630;BME280;15817;42.130;24.762;2023-04-02T16:50:35;98901.56;;;18.66;38.23
28630;BME280;15817;42.130;24.762;2023-04-02T16:56:05;98900.28;;;18.56;38.49
28630;BME280;15817;42.130;24.762;2023-04-02T17:07:57;98910.03;;;18.41;36.83
28630;BME280;15817;42.130;24.762;2023-04-02T17:18:57;98916.63;;;18.36;38.12
28630;BME280;15817;42.130;24.762;2023-04-02T17:21:48;98930.25;;;18.33;37.16
28630;BME280;15817;42.130;24.762;2023-04-02T17:27:27;98939.09;;;18.35;37.25
28630;BME280;15817;42.130;24.762;2023-04-02T17:33:16;98955.25;;;18.35;37.43
28630;BME280;15817;42.130;24.762;2023-04-02T17:39:28;98972.47;;;18.32;37.45
28630;BME280;15817;42.130;24.762;2023-04-02T17:42:39;98972.69;;;18.28;37.67
28630;BME280;15817;42.130;24.762;2023-04-02T17:49:07;98974.13;;;18.18;37.60
28630;BME280;15817;42.130;24.762;2023-04-02T17:52:18;98987.66;;;18.16;37.42
28630;BME280;15817;42.130;24.762;2023-04-02T17:57:58;98993.34;;;18.10;37.93
28630;BME280;15817;42.130;24.762;2023-04-02T18:07:15;99007.09;;;18.04;38.42
28630;BME280;15817;42.130;24.762;2023-04-02T18:24:01;98994.84;;;17.80;39.43
28630;BME280;15817;42.130;24.762;2023-04-02T18:32:31;99006.00;;;17.72;40.01
28630;BME280;15817;42.130;24.762;2023-04-02T18:52:10;99035.78;;;17.49;40.34
28630;BME280;15817;42.130;24.762;2023-04-02T18:55:12;99029.59;;;17.47;40.69
28630;BME280;15817;42.130;24.762;2023-04-02T18:57:59;99035.03;;;17.45;40.98
28630;BME280;15817;42.130;24.762;2023-04-02T19:00:45;99037.78;;;17.44;40.99
28630;BME280;15817;42.130;24.762;2023-04-02T19:03:31;99039.78;;;17.40;41.11
28630;BME280;15817;42.130;24.762;2023-04-02T19:06:08;99038.09;;;17.37;41.31
28630;BME280;15817;42.130;24.762;2023-04-02T19:09:02;99049.72;;;17.38;41.90
28630;BME280;15817;42.130;24.762;2023-04-02T19:11:31;99049.13;;;17.31;41.78
28630;BME280;15817;42.130;24.762;2023-04-02T19:14:18;99062.56;;;17.31;41.90
28630;BME280;15817;42.130;24.762;2023-04-02T19:19:25;99065.81;;;17.19;42.19
28630;BME280;15817;42.130;24.762;2023-04-02T19:28:14;99080.22;;;17.18;42.34
28630;BME280;15817;42.130;24.762;2023-04-02T19:31:41;99084.97;;;17.12;42.41
28630;BME280;15817;42.130;24.762;2023-04-02T19:35:21;99087.03;;;17.07;42.87
28630;BME280;15817;42.130;24.762;2023-04-02T19:41:28;99092.72;;;16.99;43.39
28630;BME280;15817;42.130;24.762;2023-04-02T19:44:18;99096.41;;;16.96;43.61
28630;BME280;15817;42.130;24.762;2023-04-02T19:47:10;99100.94;;;16.96;43.29
28630;BME280;15817;42.130;24.762;2023-04-02T19:49:38;99096.69;;;16.90;43.61
28630;BME280;15817;42.130;24.762;2023-04-02T19:52:05;99108.38;;;16.89;43.86
28630;BME280;15817;42.130;24.762;2023-04-02T19:54:58;99106.84;;;16.84;43.84
28630;BME280;15817;42.130;24.762;2023-04-02T19:57:23;99110.41;;;16.84;44.35
28630;BME280;15817;42.130;24.762;2023-04-02T19:59:53;99110.47;;;16.83;44.04
28630;BME280;15817;42.130;24.762;2023-04-02T20:02:29;99108.72;;;16.82;44.05
28630;BME280;15817;42.130;24.762;2023-04-02T20:04:55;99104.41;;;16.78;44.21
28630;BME280;15817;42.130;24.762;2023-04-02T20:07:29;99104.41;;;16.78;44.11
28630;BME280;15817;42.130;24.762;2023-04-02T20:09:55;99101.13;;;16.71;44.32
28630;BME280;15817;42.130;24.762;2023-04-02T20:12:27;99088.63;;;16.70;44.48
28630;BME280;15817;42.130;24.762;2023-04-02T20:14:53;99094.88;;;16.71;44.67
28630;BME280;15817;42.130;24.762;2023-04-02T20:17:19;99099.31;;;16.72;44.50
28630;BME280;15817;42.130;24.762;2023-04-02T20:19:47;99098.63;;;16.67;44.66
28630;BME280;15817;42.130;24.762;2023-04-02T20:22:18;99103.06;;;16.68;44.54
28630;BME280;15817;42.130;24.762;2023-04-02T20:24:45;99106.97;;;16.59;45.00
28630;BME280;15817;42.130;24.762;2023-04-02T20:27:14;99104.28;;;16.59;45.04
28630;BME280;15817;42.130;24.762;2023-04-02T20:29:40;99100.91;;;16.54;45.22
28630;BME280;15817;42.130;24.762;2023-04-02T20:32:08;99106.22;;;16.55;45.47
28630;BME280;15817;42.130;24.762;2023-04-02T20:38:46;99111.88;;;16.49;45.65
28630;BME280;15817;42.130;24.762;2023-04-02T20:42:08;99102.31;;;16.42;45.65
28630;BME280;15817;42.130;24.762;2023-04-02T20:44:50;99114.72;;;16.45;45.77
28630;BME280;15817;42.130;24.762;2023-04-02T20:47:17;99120.09;;;16.45;45.78
28630;BME280;15817;42.130;24.762;2023-04-02T20:50:10;99112.28;;;16.39;45.82
28630;BME280;15817;42.130;24.762;2023-04-02T20:52:36;99125.72;;;16.39;45.95
28630;BME280;15817;42.130;24.762;2023-04-02T20:55:05;99127.78;;;16.32;46.37
28630;BME280;15817;42.130;24.762;2023-04-02T20:57:34;99141.81;;;16.39;46.30
28630;BME280;15817;42.130;24.762;2023-04-02T21:00:04;99135.94;;;16.29;46.33
28630;BME280;15817;42.130;24.762;2023-04-02T21:02:34;99130.53;;;16.30;46.17
28630;BME280;15817;42.130;24.762;2023-04-02T21:05:00;99144.69;;;16.34;46.00
28630;BME280;15817;42.130;24.762;2023-04-02T21:07:29;99134.03;;;16.33;45.94
28630;BME280;15817;42.130;24.762;2023-04-02T21:09:59;99143.81;;;16.34;45.85
28630;BME280;15817;42.130;24.762;2023-04-02T21:12:30;99145.63;;;16.33;45.98
28630;BME280;15817;42.130;24.762;2023-04-02T21:15:01;99141.25;;;16.30;45.67
28630;BME280;15817;42.130;24.762;2023-04-02T21:17:42;99156.31;;;16.35;45.45
28630;BME280;15817;42.130;24.762;2023-04-02T21:20:17;99168.09;;;16.30;45.51
28630;BME280;15817;42.130;24.762;2023-04-02T21:22:44;99168.97;;;16.31;45.85
28630;BME280;15817;42.130;24.762;2023-04-02T21:25:23;99175.31;;;16.28;46.42
28630;BME280;15817;42.130;24.762;2023-04-02T21:27:49;99174.44;;;16.28;46.52
28630;BME280;15817;42.130;24.762;2023-04-02T21:30:33;99166.50;;;16.26;47.04
28630;BME280;15817;42.130;24.762;2023-04-02T21:33:02;99165.84;;;16.20;46.73
28630;BME280;15817;42.130;24.762;2023-04-02T21:35:32;99155.28;;;16.15;46.68
28630;BME280;15817;42.130;24.762;2023-04-02T21:37:58;99163.41;;;16.14;46.74
28630;BME280;15817;42.130;24.762;2023-04-02T21:40:30;99164.53;;;16.08;47.65
28630;BME280;15817;42.130;24.762;2023-04-02T21:43:01;99168.25;;;16.04;47.92
28630;BME280;15817;42.130;24.762;2023-04-02T21:45:27;99173.69;;;16.03;48.05
28630;BME280;15817;42.130;24.762;2023-04-02T21:47:53;99176.28;;;16.04;47.47
28630;BME280;15817;42.130;24.762;2023-04-02T21:50:22;99188.09;;;16.00;47.73
28630;BME280;15817;42.130;24.762;2023-04-02T21:52:48;99181.88;;;16.00;48.55
28630;BME280;15817;42.130;24.762;2023-04-02T21:55:14;99187.38;;;15.95;48.03
28630;BME280;15817;42.130;24.762;2023-04-02T21:57:46;99190.22;;;15.92;47.99
28630;BME280;15817;42.130;24.762;2023-04-02T22:00:13;99186.75;;;15.88;48.05
28630;BME280;15817;42.130;24.762;2023-04-02T22:02:48;99186.94;;;15.84;48.20
28630;BME280;15817;42.130;24.762;2023-04-02T22:05:17;99200.38;;;15.82;48.10
28630;BME280;15817;42.130;24.762;2023-04-02T22:07:45;99199.75;;;15.76;48.36
28630;BME280;15817;42.130;24.762;2023-04-02T22:10:18;99207.81;;;15.76;48.46
28630;BME280;15817;42.130;24.762;2023-04-02T22:12:45;99201.78;;;15.69;48.90
28630;BME280;15817;42.130;24.762;2023-04-02T22:15:11;99196.41;;;15.69;49.38
28630;BME280;15817;42.130;24.762;2023-04-02T22:17:39;99193.97;;;15.63;49.60
28630;BME280;15817;42.130;24.762;2023-04-02T22:20:05;99190.59;;;15.58;49.52
28630;BME280;15817;42.130;24.762;2023-04-02T22:22:31;99200.47;;;15.57;49.54
28630;BME280;15817;42.130;24.762;2023-04-02T22:24:57;99193.41;;;15.53;48.73
28630;BME280;15817;42.130;24.762;2023-04-02T22:27:30;99194.28;;;15.55;48.51